createdAt,value
2018-04-25T00:00:15.125Z,1004.71
2018-04-25T00:01:15.315Z,1004.75
2018-04-25T00:02:15.112Z,1004.73
2018-04-25T00:03:15.120Z,1004.78
2018-04-25T00:04:15.110Z,1004.79
2018-04-25T00:05:15.121Z,1004.75
2018-04-25T00:06:15.108Z,1004.74
2018-04-25T00:07:15.109Z,1004.72
2018-04-25T00:08:15.108Z,1004.72
2018-04-25T00:09:15.109Z,1004.64
2018-04-25T00:10:15.122Z,1004.65
2018-04-25T00:11:15.116Z,1004.64
2018-04-25T00:12:15.117Z,1004.62
2018-04-25T00:13:15.306Z,1004.65
2018-04-25T00:14:15.103Z,1004.62
2018-04-25T00:15:15.105Z,1004.58
2018-04-25T00:16:15.115Z,1004.61
2018-04-25T00:17:15.117Z,1004.55
2018-04-25T00:18:15.100Z,1004.55
2018-04-25T00:19:15.101Z,1004.57
2018-04-25T00:20:15.332Z,1004.56
2018-04-25T00:21:15.099Z,1004.57
2018-04-25T00:22:15.099Z,1004.60
2018-04-25T00:23:15.122Z,1004.59
2018-04-25T00:24:15.098Z,1004.57
2018-04-25T00:25:15.113Z,1004.60
2018-04-25T00:26:15.095Z,1004.56
2018-04-25T00:27:15.099Z,1004.53
2018-04-25T00:28:15.103Z,1004.51
2018-04-25T00:29:15.323Z,1004.48
2018-04-25T00:30:15.383Z,1004.44
2018-04-25T00:31:15.093Z,1004.43
2018-04-25T00:32:15.106Z,1004.45
2018-04-25T00:33:15.090Z,1004.43
2018-04-25T00:34:15.093Z,1004.44
2018-04-25T00:35:15.100Z,1004.47
2018-04-25T00:36:15.106Z,1004.44
2018-04-25T00:37:15.091Z,1004.46
2018-04-25T00:38:15.087Z,1004.41
2018-04-25T00:39:15.086Z,1004.36
2018-04-25T00:40:15.309Z,1004.35
2018-04-25T00:41:15.289Z,1004.33
2018-04-25T00:42:15.096Z,1004.31
2018-04-25T00:43:15.090Z,1004.32
2018-04-25T00:44:15.092Z,1004.33
2018-04-25T00:45:15.317Z,1004.34
2018-04-25T00:46:15.286Z,1004.35
2018-04-25T00:47:15.301Z,1004.34
2018-04-25T00:48:15.084Z,1004.32
2018-04-25T00:49:15.092Z,1004.34
2018-04-25T00:50:15.283Z,1004.30
2018-04-25T00:51:15.284Z,1004.32
2018-04-25T00:52:15.090Z,1004.31
2018-04-25T00:53:15.078Z,1004.27
2018-04-25T00:54:15.088Z,1004.24
2018-04-25T00:55:15.283Z,1004.25
2018-04-25T00:56:15.090Z,1004.20
2018-04-25T00:57:15.076Z,1004.25
2018-04-25T00:58:15.079Z,1004.18
2018-04-25T00:59:15.283Z,1004.15
2018-04-25T01:00:15.090Z,1004.11
2018-04-25T01:01:15.084Z,1004.09
2018-04-25T01:02:15.088Z,1004.02
2018-04-25T01:03:15.071Z,1004.02
2018-04-25T01:04:15.276Z,1003.94
2018-04-25T01:05:15.085Z,1003.96
2018-04-25T01:06:15.277Z,1003.95
2018-04-25T01:07:15.275Z,1003.90
2018-04-25T01:08:15.274Z,1003.88
2018-04-25T01:09:15.069Z,1003.88
2018-04-25T01:10:15.082Z,1003.89
2018-04-25T01:11:15.069Z,1003.91
2018-04-25T01:12:15.066Z,1003.97
2018-04-25T01:13:15.067Z,1003.95
2018-04-25T01:14:15.066Z,1003.98
2018-04-25T01:15:15.268Z,1003.93
2018-04-25T01:16:15.073Z,1003.88
2018-04-25T01:17:15.063Z,1003.84
2018-04-25T01:18:15.270Z,1003.88
2018-04-25T01:19:15.061Z,1003.87
2018-04-25T01:20:15.268Z,1003.87
2018-04-25T01:21:15.268Z,1003.84
2018-04-25T01:22:15.063Z,1003.89
2018-04-25T01:23:15.059Z,1003.91
2018-04-25T01:24:15.061Z,1003.89
2018-04-25T01:25:15.139Z,1003.93
2018-04-25T01:26:15.262Z,1003.92
2018-04-25T01:27:15.265Z,1003.93
2018-04-25T01:28:15.279Z,1003.94
2018-04-25T01:29:15.056Z,1003.97
2018-04-25T01:30:15.055Z,1003.93
2018-04-25T01:31:15.064Z,1003.93
2018-04-25T01:32:15.119Z,1003.96
2018-04-25T01:33:15.063Z,1003.91
2018-04-25T01:34:15.059Z,1003.99
2018-04-25T01:35:15.062Z,1003.98
2018-04-25T01:36:15.049Z,1003.91
2018-04-25T01:37:15.052Z,1004.00
2018-04-25T01:38:15.257Z,1003.92
2018-04-25T01:39:15.049Z,1003.89
2018-04-25T01:40:15.057Z,1003.91
2018-04-25T01:41:15.251Z,1003.85
2018-04-25T01:42:15.252Z,1003.97
2018-04-25T01:43:15.058Z,1003.94
2018-04-25T01:44:15.047Z,1003.93
2018-04-25T01:45:15.045Z,1003.91
2018-04-25T01:46:15.047Z,1003.94
2018-04-25T01:47:15.142Z,1003.88
2018-04-25T01:48:15.056Z,1003.87
2018-04-25T01:49:15.053Z,1003.88
2018-04-25T01:50:15.045Z,1003.88
2018-04-25T01:51:15.041Z,1003.92
2018-04-25T01:52:15.260Z,1003.98
2018-04-25T01:53:15.039Z,1004.01
2018-04-25T01:54:15.042Z,1003.94
2018-04-25T01:55:15.049Z,1003.99
2018-04-25T01:56:15.243Z,1003.98
2018-04-25T01:57:15.039Z,1003.97
2018-04-25T01:58:15.037Z,1003.92
2018-04-25T01:59:15.059Z,1003.90
2018-04-25T02:00:15.040Z,1003.85
2018-04-25T02:01:15.045Z,1003.85
2018-04-25T02:02:15.240Z,1003.84
2018-04-25T02:03:15.239Z,1003.87
2018-04-25T02:04:15.237Z,1003.91
2018-04-25T02:05:15.033Z,1003.89
2018-04-25T02:06:15.034Z,1003.90
2018-04-25T02:07:15.235Z,1003.90
2018-04-25T02:08:15.036Z,1003.89
2018-04-25T02:09:15.054Z,1003.88
2018-04-25T02:10:15.030Z,1003.84
2018-04-25T02:11:15.031Z,1003.80
2018-04-25T02:12:15.055Z,1003.87
2018-04-25T02:13:15.041Z,1003.83
2018-04-25T02:14:15.042Z,1003.77
2018-04-25T02:15:15.037Z,1003.76
2018-04-25T02:16:15.025Z,1003.82
2018-04-25T02:17:15.025Z,1003.80
2018-04-25T02:18:15.025Z,1003.81
2018-04-25T02:19:15.024Z,1003.81
2018-04-25T02:20:15.027Z,1003.80
2018-04-25T02:21:15.225Z,1003.78
2018-04-25T02:22:15.226Z,1003.80
2018-04-25T02:23:15.033Z,1003.81
2018-04-25T02:24:15.021Z,1003.85
2018-04-25T02:25:15.020Z,1003.79
2018-04-25T02:26:15.223Z,1003.82
2018-04-25T02:27:15.038Z,1003.79
2018-04-25T02:28:15.017Z,1003.83
2018-04-25T02:29:15.028Z,1003.85
2018-04-25T02:30:15.029Z,1003.83
2018-04-25T02:31:15.036Z,1003.85
2018-04-25T02:32:15.027Z,1003.80
2018-04-25T02:33:15.025Z,1003.83
2018-04-25T02:34:15.029Z,1003.79
2018-04-25T02:35:15.028Z,1003.80
2018-04-25T02:36:15.235Z,1003.75
2018-04-25T02:37:15.025Z,1003.71
2018-04-25T02:38:15.012Z,1003.69
2018-04-25T02:39:15.010Z,1003.69
2018-04-25T02:40:15.211Z,1003.68
2018-04-25T02:41:15.221Z,1003.63
2018-04-25T02:42:15.017Z,1003.70
2018-04-25T02:43:15.030Z,1003.63
2018-04-25T02:44:15.034Z,1003.65
2018-04-25T02:45:15.031Z,1003.67
2018-04-25T02:46:15.209Z,1003.71
2018-04-25T02:47:15.004Z,1003.66
2018-04-25T02:48:15.007Z,1003.66
2018-04-25T02:49:15.003Z,1003.67
2018-04-25T02:50:15.016Z,1003.62
2018-04-25T02:51:15.007Z,1003.61
2018-04-25T02:52:15.204Z,1003.63
2018-04-25T02:53:15.213Z,1003.62
2018-04-25T02:54:15.220Z,1003.63
2018-04-25T02:55:15.224Z,1003.62
2018-04-25T02:56:14.998Z,1003.60
2018-04-25T02:57:15.020Z,1003.61
2018-04-25T02:58:15.006Z,1003.63
2018-04-25T02:59:15.019Z,1003.65
2018-04-25T03:00:15.198Z,1003.64
2018-04-25T03:01:15.000Z,1003.61
2018-04-25T03:02:15.017Z,1003.66
2018-04-25T03:03:15.222Z,1003.64
2018-04-25T03:04:15.004Z,1003.66
2018-04-25T03:05:14.992Z,1003.65
2018-04-25T03:06:15.206Z,1003.67
2018-04-25T03:07:14.989Z,1003.66
2018-04-25T03:08:14.993Z,1003.60
2018-04-25T03:09:14.991Z,1003.61
2018-04-25T03:10:15.005Z,1003.58
2018-04-25T03:11:15.001Z,1003.59
2018-04-25T03:12:15.001Z,1003.59
2018-04-25T03:13:14.989Z,1003.56
2018-04-25T03:14:14.998Z,1003.64
2018-04-25T03:15:14.990Z,1003.61
2018-04-25T03:16:15.012Z,1003.63
2018-04-25T03:17:14.997Z,1003.63
2018-04-25T03:18:14.989Z,1003.55
2018-04-25T03:19:14.980Z,1003.55
2018-04-25T03:20:15.197Z,1003.51
2018-04-25T03:21:15.186Z,1003.53
2018-04-25T03:22:15.194Z,1003.57
2018-04-25T03:23:14.979Z,1003.55
2018-04-25T03:24:15.181Z,1003.55
2018-04-25T03:25:14.979Z,1003.57
2018-04-25T03:26:14.982Z,1003.53
2018-04-25T03:27:14.983Z,1003.57
2018-04-25T03:28:15.203Z,1003.54
2018-04-25T03:29:14.978Z,1003.54
2018-04-25T03:30:14.988Z,1003.54
2018-04-25T03:31:14.988Z,1003.60
2018-04-25T03:32:14.998Z,1003.56
2018-04-25T03:33:14.986Z,1003.53
2018-04-25T03:34:15.179Z,1003.53
2018-04-25T03:35:14.981Z,1003.54
2018-04-25T03:36:14.971Z,1003.50
2018-04-25T03:37:15.174Z,1003.55
2018-04-25T03:38:14.972Z,1003.51
2018-04-25T03:39:14.967Z,1003.57
2018-04-25T03:40:14.970Z,1003.52
2018-04-25T03:41:14.985Z,1003.53
2018-04-25T03:42:14.977Z,1003.56
2018-04-25T03:43:14.966Z,1003.58
2018-04-25T03:44:14.964Z,1003.59
2018-04-25T03:45:14.975Z,1003.53
2018-04-25T03:46:14.965Z,1003.56
2018-04-25T03:47:14.962Z,1003.54
2018-04-25T03:48:14.965Z,1003.50
2018-04-25T03:49:14.964Z,1003.49
2018-04-25T03:50:14.971Z,1003.48
2018-04-25T03:51:14.970Z,1003.50
2018-04-25T03:52:14.960Z,1003.50
2018-04-25T03:53:15.163Z,1003.50
2018-04-25T03:54:14.959Z,1003.48
2018-04-25T03:55:14.958Z,1003.53
2018-04-25T03:56:14.958Z,1003.55
2018-04-25T03:57:14.957Z,1003.53
2018-04-25T03:58:14.957Z,1003.56
2018-04-25T03:59:14.981Z,1003.58
2018-04-25T04:00:14.963Z,1003.56
2018-04-25T04:01:14.958Z,1003.56
2018-04-25T04:02:14.953Z,1003.56
2018-04-25T04:03:15.155Z,1003.56
2018-04-25T04:04:15.165Z,1003.57
2018-04-25T04:05:14.954Z,1003.58
2018-04-25T04:06:14.953Z,1003.59
2018-04-25T04:07:15.154Z,1003.56
2018-04-25T04:08:15.163Z,1003.63
2018-04-25T04:09:14.962Z,1003.61
2018-04-25T04:10:14.945Z,1003.59
2018-04-25T04:11:15.151Z,1003.58
2018-04-25T04:12:14.945Z,1003.58
2018-04-25T04:13:14.954Z,1003.60
2018-04-25T04:14:15.157Z,1003.57
2018-04-25T04:15:15.149Z,1003.55
2018-04-25T04:16:14.950Z,1003.58
2018-04-25T04:17:15.145Z,1003.55
2018-04-25T04:18:14.938Z,1003.67
2018-04-25T04:19:15.142Z,1003.67
2018-04-25T04:20:15.144Z,1003.65
2018-04-25T04:21:14.946Z,1003.74
2018-04-25T04:22:14.935Z,1003.68
2018-04-25T04:23:14.960Z,1003.65
2018-04-25T04:24:14.969Z,1003.75
2018-04-25T04:25:14.945Z,1003.72
2018-04-25T04:26:14.931Z,1003.74
2018-04-25T04:27:14.931Z,1003.77
2018-04-25T04:28:14.936Z,1003.75
2018-04-25T04:29:14.939Z,1003.77
2018-04-25T04:30:14.927Z,1003.72
2018-04-25T04:31:14.936Z,1003.76
2018-04-25T04:32:15.139Z,1003.72
2018-04-25T04:33:15.128Z,1003.73
2018-04-25T04:34:14.935Z,1003.77
2018-04-25T04:35:14.927Z,1003.74
2018-04-25T04:36:15.123Z,1003.67
2018-04-25T04:37:15.133Z,1003.74
2018-04-25T04:38:14.917Z,1003.78
2018-04-25T04:39:14.935Z,1003.78
2018-04-25T04:40:14.916Z,1003.74
2018-04-25T04:41:14.914Z,1003.73
2018-04-25T04:42:14.925Z,1003.66
2018-04-25T04:43:14.984Z,1003.68
2018-04-25T04:44:14.924Z,1003.74
2018-04-25T04:45:14.931Z,1003.74
2018-04-25T04:46:14.910Z,1003.69
2018-04-25T04:47:14.934Z,1003.75
2018-04-25T04:48:14.908Z,1003.80
2018-04-25T04:49:15.110Z,1003.81
2018-04-25T04:50:14.904Z,1003.77
2018-04-25T04:51:15.132Z,1003.80
2018-04-25T04:52:14.900Z,1003.79
2018-04-25T04:53:14.913Z,1003.79
2018-04-25T04:54:14.910Z,1003.76
2018-04-25T04:55:14.900Z,1003.74
2018-04-25T04:56:14.897Z,1003.74
2018-04-25T04:57:14.895Z,1003.76
2018-04-25T04:58:15.103Z,1003.73
2018-04-25T04:59:15.095Z,1003.71
2018-04-25T05:00:14.897Z,1003.72
2018-04-25T05:01:14.901Z,1003.69
2018-04-25T05:02:14.889Z,1003.71
2018-04-25T05:03:15.092Z,1003.71
2018-04-25T05:04:14.887Z,1003.68
2018-04-25T05:05:14.971Z,1003.69
2018-04-25T05:06:15.131Z,1003.65
2018-04-25T05:07:15.107Z,1003.67
2018-04-25T05:08:14.903Z,1003.73
2018-04-25T05:09:14.882Z,1003.74
2018-04-25T05:10:15.095Z,1003.65
2018-04-25T05:11:15.081Z,1003.69
2018-04-25T05:12:15.081Z,1003.66
2018-04-25T05:13:15.078Z,1003.70
2018-04-25T05:14:14.875Z,1003.75
2018-04-25T05:15:14.884Z,1003.73
2018-04-25T05:16:14.873Z,1003.68
2018-04-25T05:17:15.080Z,1003.74
2018-04-25T05:18:15.085Z,1003.73
2018-04-25T05:19:14.886Z,1003.69
2018-04-25T05:20:15.073Z,1003.72
2018-04-25T05:21:14.877Z,1003.72
2018-04-25T05:22:15.080Z,1003.72
2018-04-25T05:23:14.860Z,1003.64
2018-04-25T05:24:15.091Z,1003.70
2018-04-25T05:25:15.063Z,1003.67
2018-04-25T05:26:14.858Z,1003.65
2018-04-25T05:27:14.858Z,1003.67
2018-04-25T05:28:14.871Z,1003.75
2018-04-25T05:29:14.853Z,1003.74
2018-04-25T05:30:14.878Z,1003.77
2018-04-25T05:31:14.852Z,1003.78
2018-04-25T05:32:14.950Z,1003.71
2018-04-25T05:33:15.063Z,1003.77
2018-04-25T05:34:14.848Z,1003.78
2018-04-25T05:35:14.845Z,1003.85
2018-04-25T05:36:14.843Z,1003.82
2018-04-25T05:37:14.843Z,1003.77
2018-04-25T05:38:14.842Z,1003.88
2018-04-25T05:39:15.045Z,1004.01
2018-04-25T05:40:14.848Z,1003.91
2018-04-25T05:41:14.840Z,1003.90
2018-04-25T05:42:15.040Z,1003.83
2018-04-25T05:43:14.834Z,1003.91
2018-04-25T05:44:14.833Z,1004.00
2018-04-25T05:45:15.036Z,1003.97
2018-04-25T05:46:15.037Z,1004.01
2018-04-25T05:47:14.832Z,1003.99
2018-04-25T05:48:15.031Z,1004.08
2018-04-25T05:49:14.835Z,1004.08
2018-04-25T05:50:15.031Z,1004.12
2018-04-25T05:51:14.835Z,1004.08
2018-04-25T05:52:15.025Z,1004.21
2018-04-25T05:53:15.043Z,1004.19
2018-04-25T05:54:15.034Z,1004.19
2018-04-25T05:55:15.020Z,1004.14
2018-04-25T05:56:15.042Z,1004.18
2018-04-25T05:57:14.815Z,1004.14
2018-04-25T05:58:14.813Z,1004.20
2018-04-25T05:59:14.838Z,1004.15
2018-04-25T06:00:14.806Z,1004.21
2018-04-25T06:01:15.014Z,1004.25
2018-04-25T06:02:14.816Z,1004.36
2018-04-25T06:03:14.801Z,1004.29
2018-04-25T06:04:14.798Z,1004.29
2018-04-25T06:05:15.006Z,1004.34
2018-04-25T06:06:15.007Z,1004.36
2018-04-25T06:07:14.888Z,1004.36
2018-04-25T06:08:14.807Z,1004.32
2018-04-25T06:09:14.803Z,1004.42
2018-04-25T06:10:14.791Z,1004.43
2018-04-25T06:11:14.788Z,1004.42
2018-04-25T06:12:14.989Z,1004.42
2018-04-25T06:13:14.988Z,1004.39
2018-04-25T06:14:14.791Z,1004.43
2018-04-25T06:15:14.780Z,1004.42
2018-04-25T06:16:14.981Z,1004.50
2018-04-25T06:17:14.778Z,1004.46
2018-04-25T06:18:14.779Z,1004.52
2018-04-25T06:19:14.773Z,1004.51
2018-04-25T06:20:15.033Z,1004.55
2018-04-25T06:21:14.786Z,1004.52
2018-04-25T06:22:14.779Z,1004.47
2018-04-25T06:23:14.765Z,1004.44
2018-04-25T06:24:14.778Z,1004.48
2018-04-25T06:25:14.796Z,1004.56
2018-04-25T06:26:14.779Z,1004.53
2018-04-25T06:27:14.782Z,1004.57
2018-04-25T06:28:14.775Z,1004.61
2018-04-25T06:29:14.768Z,1004.64
2018-04-25T06:30:14.955Z,1004.61
2018-04-25T06:31:14.849Z,1004.61
2018-04-25T06:32:14.748Z,1004.58
2018-04-25T06:33:14.756Z,1004.61
2018-04-25T06:34:14.747Z,1004.58
2018-04-25T06:35:14.759Z,1004.59
2018-04-25T06:36:14.739Z,1004.62
2018-04-25T06:37:14.740Z,1004.63
2018-04-25T06:38:14.951Z,1004.68
2018-04-25T06:39:14.763Z,1004.63
2018-04-25T06:40:14.938Z,1004.65
2018-04-25T06:41:14.741Z,1004.70
2018-04-25T06:42:14.732Z,1004.59
2018-04-25T06:43:14.729Z,1004.61
2018-04-25T06:44:14.726Z,1004.65
2018-04-25T06:45:14.723Z,1004.66
2018-04-25T06:46:14.947Z,1004.74
2018-04-25T06:47:14.733Z,1004.76
2018-04-25T06:48:14.931Z,1004.73
2018-04-25T06:49:14.717Z,1004.78
2018-04-25T06:50:14.714Z,1004.75
2018-04-25T06:51:14.723Z,1004.84
2018-04-25T06:52:14.720Z,1004.81
2018-04-25T06:53:14.709Z,1004.79
2018-04-25T06:54:14.914Z,1004.83
2018-04-25T06:55:14.713Z,1004.86
2018-04-25T06:56:14.699Z,1004.96
2018-04-25T06:57:14.714Z,1005.05
2018-04-25T06:58:14.710Z,1005.12
2018-04-25T06:59:14.696Z,1005.13
2018-04-25T07:00:14.700Z,1005.12
2018-04-25T07:01:14.696Z,1005.05
2018-04-25T07:02:14.690Z,1005.11
2018-04-25T07:03:14.685Z,1005.08
2018-04-25T07:04:14.891Z,1005.03
2018-04-25T07:05:14.683Z,1005.10
2018-04-25T07:06:14.889Z,1005.09
2018-04-25T07:07:14.678Z,1005.00
2018-04-25T07:08:14.700Z,1004.95
2018-04-25T07:09:14.684Z,1004.93
2018-04-25T07:10:14.673Z,1004.93
2018-04-25T07:11:14.694Z,1004.88
2018-04-25T07:12:14.871Z,1004.92
2018-04-25T07:13:14.666Z,1004.87
2018-04-25T07:14:14.871Z,1004.92
2018-04-25T07:15:14.663Z,1004.98
2018-04-25T07:16:14.659Z,1005.00
2018-04-25T07:17:14.656Z,1005.02
2018-04-25T07:18:14.672Z,1005.02
2018-04-25T07:19:14.856Z,1005.02
2018-04-25T07:20:14.648Z,1004.99
2018-04-25T07:21:14.650Z,1005.03
2018-04-25T07:22:14.646Z,1005.07
2018-04-25T07:23:14.647Z,1005.13
2018-04-25T07:24:14.644Z,1005.11
2018-04-25T07:25:14.642Z,1005.09
2018-04-25T07:26:14.648Z,1005.13
2018-04-25T07:27:14.646Z,1005.10
2018-04-25T07:28:14.641Z,1005.12
2018-04-25T07:29:14.635Z,1005.11
2018-04-25T07:30:14.832Z,1005.12
2018-04-25T07:31:14.630Z,1005.07
2018-04-25T07:32:14.632Z,1005.07
2018-04-25T07:33:14.829Z,1005.13
2018-04-25T07:34:14.624Z,1005.15
2018-04-25T07:35:14.635Z,1005.13
2018-04-25T07:36:14.631Z,1005.14
2018-04-25T07:37:14.640Z,1005.20
2018-04-25T07:38:14.831Z,1005.17
2018-04-25T07:39:14.610Z,1005.21
2018-04-25T07:40:14.609Z,1005.22
2018-04-25T07:41:14.809Z,1005.25
2018-04-25T07:42:14.819Z,1005.23
2018-04-25T07:43:14.808Z,1005.29
2018-04-25T07:44:14.600Z,1005.31
2018-04-25T07:45:14.612Z,1005.30
2018-04-25T07:46:14.799Z,1005.30
2018-04-25T07:47:14.594Z,1005.26
2018-04-25T07:48:14.592Z,1005.29
2018-04-25T07:49:14.605Z,1005.32
2018-04-25T07:50:14.591Z,1005.30
2018-04-25T07:51:14.821Z,1005.28
2018-04-25T07:52:14.625Z,1005.33
2018-04-25T07:53:14.585Z,1005.27
2018-04-25T07:54:14.580Z,1005.31
2018-04-25T07:55:14.589Z,1005.31
2018-04-25T07:56:14.779Z,1005.33
2018-04-25T07:57:14.572Z,1005.32
2018-04-25T07:58:14.582Z,1005.34
2018-04-25T07:59:14.576Z,1005.33
2018-04-25T08:00:14.568Z,1005.30
2018-04-25T08:01:14.567Z,1005.34
2018-04-25T08:02:14.577Z,1005.36
2018-04-25T08:03:14.562Z,1005.31
2018-04-25T08:04:14.560Z,1005.36
2018-04-25T08:05:14.763Z,1005.35
2018-04-25T08:06:14.774Z,1005.35
2018-04-25T08:07:14.554Z,1005.35
2018-04-25T08:08:14.564Z,1005.36
2018-04-25T08:09:14.553Z,1005.41
2018-04-25T08:10:14.753Z,1005.42
2018-04-25T08:11:14.555Z,1005.45
2018-04-25T08:12:14.653Z,1005.46
2018-04-25T08:13:14.543Z,1005.45
2018-04-25T08:14:14.556Z,1005.42
2018-04-25T08:15:14.749Z,1005.43
2018-04-25T08:16:14.539Z,1005.51
2018-04-25T08:17:14.557Z,1005.48
2018-04-25T08:18:14.534Z,1005.57
2018-04-25T08:19:14.533Z,1005.59
2018-04-25T08:20:14.540Z,1005.55
2018-04-25T08:21:14.540Z,1005.58
2018-04-25T08:22:14.527Z,1005.54
2018-04-25T08:23:14.527Z,1005.51
2018-04-25T08:24:14.529Z,1005.52
2018-04-25T08:25:14.524Z,1005.58
2018-04-25T08:26:14.725Z,1005.55
2018-04-25T08:27:14.519Z,1005.65
2018-04-25T08:28:14.722Z,1005.68
2018-04-25T08:29:14.515Z,1005.66
2018-04-25T08:30:14.516Z,1005.58
2018-04-25T08:31:14.517Z,1005.65
2018-04-25T08:32:14.522Z,1005.64
2018-04-25T08:33:14.510Z,1005.62
2018-04-25T08:34:14.605Z,1005.68
2018-04-25T08:35:14.508Z,1005.63
2018-04-25T08:36:14.516Z,1005.73
2018-04-25T08:37:14.504Z,1005.70
2018-04-25T08:38:14.504Z,1005.72
2018-04-25T08:39:14.565Z,1005.70
2018-04-25T08:40:14.717Z,1005.72
2018-04-25T08:41:14.500Z,1005.76
2018-04-25T08:42:14.505Z,1005.73
2018-04-25T08:43:14.498Z,1005.75
2018-04-25T08:44:14.507Z,1005.76
2018-04-25T08:45:14.528Z,1005.76
2018-04-25T08:46:14.494Z,1005.84
2018-04-25T08:47:14.505Z,1005.81
2018-04-25T08:48:14.490Z,1005.80
2018-04-25T08:49:14.501Z,1005.86
2018-04-25T08:50:14.487Z,1005.83
2018-04-25T08:51:14.501Z,1005.85
2018-04-25T08:52:14.483Z,1005.85
2018-04-25T08:53:14.482Z,1005.88
2018-04-25T08:54:14.713Z,1005.87
2018-04-25T08:55:14.490Z,1005.94
2018-04-25T08:56:14.488Z,1005.90
2018-04-25T08:57:14.479Z,1005.88
2018-04-25T08:58:14.489Z,1005.89
2018-04-25T08:59:14.696Z,1005.92
2018-04-25T09:00:14.472Z,1006.02
2018-04-25T09:01:14.496Z,1005.97
2018-04-25T09:02:14.484Z,1005.92
2018-04-25T09:03:14.484Z,1005.93
2018-04-25T09:04:14.463Z,1006.00
2018-04-25T09:05:14.463Z,1006.04
2018-04-25T09:06:14.460Z,1006.16
2018-04-25T09:07:14.469Z,1006.18
2018-04-25T09:08:14.459Z,1006.18
2018-04-25T09:09:14.456Z,1006.28
2018-04-25T09:10:14.456Z,1006.31
2018-04-25T09:11:14.470Z,1006.29
2018-04-25T09:12:14.680Z,1006.36
2018-04-25T09:13:14.521Z,1006.38
2018-04-25T09:14:14.468Z,1006.47
2018-04-25T09:15:14.452Z,1006.45
2018-04-25T09:16:14.645Z,1006.48
2018-04-25T09:17:14.453Z,1006.44
2018-04-25T09:18:14.451Z,1006.48
2018-04-25T09:19:14.455Z,1006.48
2018-04-25T09:20:14.734Z,1006.59
2018-04-25T09:21:14.429Z,1006.54
2018-04-25T09:22:14.433Z,1006.54
2018-04-25T09:23:14.426Z,1006.45
2018-04-25T09:24:14.424Z,1006.39
2018-04-25T09:25:14.630Z,1006.44
2018-04-25T09:26:14.636Z,1006.50
2018-04-25T09:27:14.628Z,1006.52
2018-04-25T09:28:14.412Z,1006.55
2018-04-25T09:29:14.410Z,1006.55
2018-04-25T09:30:14.407Z,1006.53
2018-04-25T09:31:14.405Z,1006.51
2018-04-25T09:32:14.401Z,1006.54
2018-04-25T09:33:14.604Z,1006.54
2018-04-25T09:34:14.414Z,1006.65
2018-04-25T09:35:14.405Z,1006.56
2018-04-25T09:36:14.391Z,1006.55
2018-04-25T09:37:14.408Z,1006.54
2018-04-25T09:38:14.591Z,1006.56
2018-04-25T09:39:14.395Z,1006.51
2018-04-25T09:40:14.382Z,1006.51
2018-04-25T09:41:14.379Z,1006.48
2018-04-25T09:42:14.390Z,1006.54
2018-04-25T09:43:14.378Z,1006.49
2018-04-25T09:44:14.382Z,1006.56
2018-04-25T09:45:14.371Z,1006.58
2018-04-25T09:46:14.595Z,1006.55
2018-04-25T09:47:14.395Z,1006.54
2018-04-25T09:48:14.365Z,1006.54
2018-04-25T09:49:14.565Z,1006.51
2018-04-25T09:50:14.379Z,1006.46
2018-04-25T09:51:14.367Z,1006.53
2018-04-25T09:52:14.561Z,1006.57
2018-04-25T09:53:14.365Z,1006.56
2018-04-25T09:54:14.553Z,1006.56
2018-04-25T09:55:14.360Z,1006.53
2018-04-25T09:56:14.348Z,1006.59
2018-04-25T09:57:14.343Z,1006.60
2018-04-25T09:58:14.358Z,1006.60
2018-04-25T09:59:14.547Z,1006.64
2018-04-25T10:00:14.350Z,1006.65
2018-04-25T10:01:14.337Z,1006.67
2018-04-25T10:02:14.348Z,1006.66
2018-04-25T10:03:14.330Z,1006.65
2018-04-25T10:04:14.531Z,1006.70
2018-04-25T10:05:14.337Z,1006.71
2018-04-25T10:06:14.325Z,1006.74
2018-04-25T10:07:14.330Z,1006.74
2018-04-25T10:08:14.531Z,1006.69
2018-04-25T10:09:14.320Z,1006.65
2018-04-25T10:10:14.317Z,1006.65
2018-04-25T10:11:14.527Z,1006.62
2018-04-25T10:12:14.324Z,1006.72
2018-04-25T10:13:14.338Z,1006.67
2018-04-25T10:14:14.306Z,1006.61
2018-04-25T10:15:14.328Z,1006.68
2018-04-25T10:16:14.510Z,1006.64
2018-04-25T10:17:14.346Z,1006.58
2018-04-25T10:18:14.299Z,1006.58
2018-04-25T10:19:14.501Z,1006.63
2018-04-25T10:20:14.296Z,1006.62
2018-04-25T10:21:14.306Z,1006.61
2018-04-25T10:22:14.296Z,1006.65
2018-04-25T10:23:14.308Z,1006.65
2018-04-25T10:24:14.523Z,1006.71
2018-04-25T10:25:14.292Z,1006.75
2018-04-25T10:26:14.285Z,1006.77
2018-04-25T10:27:14.286Z,1006.80
2018-04-25T10:28:14.309Z,1006.71
2018-04-25T10:29:14.483Z,1006.72
2018-04-25T10:30:14.274Z,1006.74
2018-04-25T10:31:14.276Z,1006.77
2018-04-25T10:32:14.272Z,1006.78
2018-04-25T10:33:14.291Z,1006.74
2018-04-25T10:34:14.267Z,1006.77
2018-04-25T10:35:14.262Z,1006.80
2018-04-25T10:36:14.268Z,1006.83
2018-04-25T10:37:14.258Z,1006.85
2018-04-25T10:38:14.267Z,1006.88
2018-04-25T10:39:14.257Z,1006.89
2018-04-25T10:40:14.471Z,1006.84
2018-04-25T10:41:14.250Z,1006.85
2018-04-25T10:42:14.248Z,1006.88
2018-04-25T10:43:14.248Z,1006.87
2018-04-25T10:44:14.263Z,1006.85
2018-04-25T10:45:14.268Z,1006.87
2018-04-25T10:46:14.446Z,1006.89
2018-04-25T10:47:14.443Z,1006.95
2018-04-25T10:48:14.236Z,1006.88
2018-04-25T10:49:14.238Z,1006.98
2018-04-25T10:50:14.254Z,1007.03
2018-04-25T10:51:14.444Z,1006.97
2018-04-25T10:52:14.227Z,1006.97
2018-04-25T10:53:14.240Z,1006.99
2018-04-25T10:54:14.237Z,1006.99
2018-04-25T10:55:14.295Z,1007.02
2018-04-25T10:56:14.231Z,1007.02
2018-04-25T10:57:14.218Z,1007.00
2018-04-25T10:58:14.219Z,1006.98
2018-04-25T10:59:14.421Z,1006.94
2018-04-25T11:00:14.216Z,1006.97
2018-04-25T11:01:14.226Z,1006.97
2018-04-25T11:02:14.218Z,1006.99
2018-04-25T11:03:14.225Z,1006.98
2018-04-25T11:04:14.236Z,1006.98
2018-04-25T11:05:14.215Z,1006.98
2018-04-25T11:06:14.214Z,1006.97
2018-04-25T11:07:14.209Z,1006.94
2018-04-25T11:08:14.249Z,1006.91
2018-04-25T11:09:14.212Z,1006.91
2018-04-25T11:10:14.202Z,1006.90
2018-04-25T11:11:14.191Z,1006.85
2018-04-25T11:12:14.405Z,1006.94
2018-04-25T11:13:14.213Z,1006.91
2018-04-25T11:14:14.201Z,1006.88
2018-04-25T11:15:14.387Z,1006.89
2018-04-25T11:16:14.203Z,1006.92
2018-04-25T11:17:14.202Z,1006.92
2018-04-25T11:18:14.179Z,1006.93
2018-04-25T11:19:14.174Z,1006.90
2018-04-25T11:20:14.379Z,1006.87
2018-04-25T11:21:14.171Z,1006.92
2018-04-25T11:22:14.169Z,1006.85
2018-04-25T11:23:14.169Z,1006.84
2018-04-25T11:24:14.175Z,1006.85
2018-04-25T11:25:14.366Z,1006.88
2018-04-25T11:26:14.163Z,1006.86
2018-04-25T11:27:14.161Z,1006.88
2018-04-25T11:28:14.157Z,1006.92
2018-04-25T11:29:14.154Z,1006.84
2018-04-25T11:30:14.166Z,1006.90
2018-04-25T11:31:14.148Z,1006.88
2018-04-25T11:32:14.148Z,1006.85
2018-04-25T11:33:14.162Z,1006.83
2018-04-25T11:34:14.349Z,1006.83
2018-04-25T11:35:14.146Z,1006.82
2018-04-25T11:36:14.141Z,1006.74
2018-04-25T11:37:14.148Z,1006.74
2018-04-25T11:38:14.138Z,1006.75
2018-04-25T11:39:14.142Z,1006.77
2018-04-25T11:40:14.338Z,1006.80
2018-04-25T11:41:14.337Z,1006.81
2018-04-25T11:42:14.335Z,1006.84
2018-04-25T11:43:14.127Z,1006.77
2018-04-25T11:44:14.128Z,1006.73
2018-04-25T11:45:14.127Z,1006.74
2018-04-25T11:46:14.329Z,1006.77
2018-04-25T11:47:14.177Z,1006.72
2018-04-25T11:48:14.133Z,1006.69
2018-04-25T11:49:14.334Z,1006.70
2018-04-25T11:50:14.323Z,1006.70
2018-04-25T11:51:14.117Z,1006.72
2018-04-25T11:52:14.128Z,1006.63
2018-04-25T11:53:14.111Z,1006.71
2018-04-25T11:54:14.110Z,1006.75
2018-04-25T11:55:14.111Z,1006.70
2018-04-25T11:56:14.128Z,1006.79
2018-04-25T11:57:14.109Z,1006.79
2018-04-25T11:58:14.105Z,1006.75
2018-04-25T11:59:14.366Z,1006.76
2018-04-25T12:00:14.103Z,1006.78
2018-04-25T12:01:14.103Z,1006.82
2018-04-25T12:02:14.100Z,1006.83
2018-04-25T12:03:14.106Z,1006.82
2018-04-25T12:04:14.094Z,1006.84
2018-04-25T12:05:14.093Z,1006.88